« 趣味的航空路誌改訂情報 2024/2/22 thu | トップページ | 定点 富山空港他 2024/2/27 tue »

2024/02/24

定点 富山空港他 2024/2/24 sat

RJNT 240000Z 24005KT 9999 FEW010 SCT030 BKN050 02/00 Q1030

まずは、今朝の難破船

20240224_0iwase_00dongyu
20240224_0iwase_01dongyu

休みは関係なく、作業が続いています。

20240224_0iwase_02dongyu

お休みの日は、サーフィンのポイントです。

この頃に能登地震視察の岸田首相乗機のC2(18-1215)が能登空港に向かって行きました。

富山県警察の「つるぎ」さんは、警備に能登へ飛び立っていきました。

さて今週、空では大きな改編が。管制空域の上下、東西分離の作業が進められていますが、先に上下分離されたT27北陸セクターが、東西分離で神戸航空管制部の管轄に。よってコールサインがN43「コウベコントロール」、FL335から上の空域がF07「フクオカコントロール」となりました。お隣T01上越セクターは、まだ東京のままです。

20240224_rjnt_03ja14aj

悪天候が続いていて、留め置きとなっていた機体が帰還します。

20240224_rjnt_04ja14aj

JA14AJ C208 ASK

RJNT 240100Z 21003KT 9999 VCSH FEW007 SCT020 BKN030 03/M00 Q1030

20240224_rjnt_05ja91cp

JA91CP AW139 千葉県警察「かとり1号」

お疲れ様でした。

20240224_rjnt_06b18665
20240224_rjnt_07b18665
20240224_rjnt_08b18665

CAL2170 RCTP-RJNT B-18665 B737-8AL

20240224_rjnt_09ja90an
20240224_rjnt_10ja90an

ANA315 RJTT-RJNT JA90AN B737-8AL

RJNT 240200Z VRB02KT 9999 FEW010 SCT020 BKN050 05/02 Q1029

20240224_rjnt_11ja90an
20240224_rjnt_12ja90an

ANA316 RJNT-RJTT JA90AN B737-8AL

RJNT 240300Z VRB03KT 9999 FEW010 SCT025 BKN040 05/M00 Q1028

20240224_rjnt_13ja82an
20240224_rjnt_14ja82an

ANA1182 RJCC-RJNT JA82AN B737-881

20240224_rjnt_15b18665
20240224_rjnt_16b18665
20240224_rjnt_17b18665

CAL2171 RJNT-RCTP B-18665 B737-8AL

20240224_rjnt_18ja82an

ANA1181 RJNT-RJCC JA82AN B737-881

RJNT 240400Z 02007KT 310V050 9999 FEW010 SCT025 BKN040 05/M03 Q1027

20240224_rjnt_19ja119w

ほんと久しぶりのフライトです。舳倉島へ行ってきた以来。

20240224_rjnt_20ja119w

JA119W↑ AW139 富山県消防防災

20240224_rjnt_21ja119w

どうも空港の南、猿倉山周辺でS&Rの模様

RJNT 240500Z 05006KT 360V080 9999 FEW010 SCT025 BKN040 06/M03 Q1027

20240224_rjnt_22b5261
20240224_rjnt_23b5261
20240224_rjnt_24b5261
20240224_rjnt_25b5261
20240224_rjnt_26b5261
20240224_rjnt_27b5261

CSH825 ZSPD-RJNT B-5261 B737-7D6

20240224_rjnt_28ja119w

JA119W↓

20240224_rjnt_29ja119w

1時間半ほどで帰ってきました。

RJNT 240600Z 36007KT 320V060 9999 FEW010 SCT030 BKN045 06/M03 Q1028

この後しばらくして、「つるぎ」さんは帰還されました。岸田総理は能登から朝と同じC-2に乗って横田行でお帰りに。

 

|

« 趣味的航空路誌改訂情報 2024/2/22 thu | トップページ | 定点 富山空港他 2024/2/27 tue »

そら」カテゴリの記事

富山空港」カテゴリの記事

コメント

コメントを書く



(ウェブ上には掲載しません)


コメントは記事投稿者が公開するまで表示されません。



« 趣味的航空路誌改訂情報 2024/2/22 thu | トップページ | 定点 富山空港他 2024/2/27 tue »